Time;durP1;ratioP1;P1;durP2;ratioP2;P2;SDS_P1;SDS_P2;PMS_P1;PMS_P2;Temp;Humidity;BMP_temperature;BMP_pressure;BME280_temperature;BME280_humidity;BME280_pressure;Samples;Min_cycle;Max_cycle;Signal;HPM_P1;HPM_P2
2023/06/16 00:01:44;;;;;;;13.80;13.30;;;15.70;99.90;;;;;;5110240;27;20489;-67
2023/06/16 00:04:12;;;;;;;13.10;12.60;;;15.60;99.90;;;;;;5102595;27;21043;-67
2023/06/16 00:06:42;;;;;;;12.50;12.00;;;15.60;99.90;;;;;;5121970;27;20462;-68
2023/06/16 00:09:13;;;;;;;12.57;12.07;;;15.50;99.90;;;;;;5109809;27;20468;-68
2023/06/16 00:11:41;;;;;;;12.20;11.70;;;15.40;99.90;;;;;;5104145;27;20464;-68
2023/06/16 00:14:10;;;;;;;12.37;11.87;;;15.60;99.90;;;;;;5123319;27;20465;-68
2023/06/16 00:16:37;;;;;;;12.20;11.70;;;15.50;99.90;;;;;;5107823;27;20481;-68
2023/06/16 00:19:05;;;;;;;12.40;11.90;;;15.40;99.90;;;;;;5111255;27;20820;-66
2023/06/16 00:21:38;;;;;;;12.23;11.73;;;15.30;99.90;;;;;;5102517;27;20510;-68
2023/06/16 00:24:05;;;;;;;12.50;12.00;;;15.30;99.90;;;;;;5105118;27;20461;-68
2023/06/16 00:26:33;;;;;;;12.87;12.37;;;15.30;99.90;;;;;;5110172;27;20464;-68
2023/06/16 00:29:00;;;;;;;12.30;11.80;;;15.30;99.90;;;;;;5119744;27;20479;-68
2023/06/16 00:31:30;;;;;;;12.93;12.43;;;15.20;99.90;;;;;;5108195;28;20461;-68
2023/06/16 00:33:56;;;;;;;12.30;11.80;;;15.20;99.90;;;;;;5102101;28;20462;-66
2023/06/16 00:36:23;;;;;;;13.43;12.93;;;15.10;99.90;;;;;;5097642;28;20472;-68
2023/06/16 00:38:50;;;;;;;12.93;12.43;;;15.10;99.90;;;;;;5122784;27;20891;-67
2023/06/16 00:41:17;;;;;;;12.53;12.03;;;15.00;99.90;;;;;;5090495;28;20484;-68
2023/06/16 00:43:45;;;;;;;13.27;12.77;;;15.00;99.90;;;;;;5095208;27;20997;-68
2023/06/16 00:46:21;;;;;;;13.00;12.50;;;15.00;99.90;;;;;;5097863;28;20466;-68
2023/06/16 00:48:51;;;;;;;12.90;12.40;;;14.90;99.90;;;;;;5109539;27;20516;-68
2023/06/16 00:51:18;;;;;;;13.00;12.50;;;14.80;99.90;;;;;;5098492;27;20485;-68
2023/06/16 00:53:45;;;;;;;12.37;11.87;;;14.80;99.90;;;;;;5106798;27;21135;-68
2023/06/16 00:56:13;;;;;;;12.80;12.30;;;14.80;99.90;;;;;;5116833;27;20459;-68
2023/06/16 00:58:40;;;;;;;12.73;12.23;;;14.70;99.90;;;;;;5097360;27;20489;-67
2023/06/16 01:01:08;;;;;;;13.17;12.67;;;14.70;99.90;;;;;;5096070;27;20492;-68
2023/06/16 01:03:35;;;;;;;12.40;11.90;;;14.70;99.90;;;;;;5109682;27;20462;-68
2023/06/16 01:06:07;;;;;;;12.63;12.13;;;14.60;99.90;;;;;;5110321;27;20578;-68
2023/06/16 01:08:41;;;;;;;12.03;11.63;;;14.60;99.90;;;;;;5101083;27;20858;-68
2023/06/16 01:11:22;;;;;;;12.30;11.80;;;14.50;99.90;;;;;;5117050;27;20965;-67
2023/06/16 01:13:56;;;;;;;12.83;12.33;;;14.50;99.90;;;;;;5101366;27;20527;-67
2023/06/16 01:16:30;;;;;;;12.27;11.77;;;14.50;99.90;;;;;;5105050;27;20475;-67
2023/06/16 01:18:59;;;;;;;14.90;14.30;;;14.50;99.90;;;;;;5102667;27;20472;-67
2023/06/16 01:21:41;;;;;;;12.97;12.47;;;14.50;99.90;;;;;;5104134;27;20475;-67
2023/06/16 01:24:14;;;;;;;12.30;11.80;;;14.50;99.90;;;;;;5104368;27;20507;-66
2023/06/16 01:26:45;;;;;;;12.40;11.90;;;14.50;99.90;;;;;;5105026;27;20457;-67
2023/06/16 01:29:13;;;;;;;13.17;12.67;;;14.50;99.90;;;;;;5108746;27;20475;-65
2023/06/16 01:31:41;;;;;;;11.93;11.53;;;14.40;99.90;;;;;;5093911;28;20804;-67
2023/06/16 01:34:12;;;;;;;12.50;12.00;;;14.40;99.90;;;;;;5109650;28;20507;-67
2023/06/16 01:36:42;;;;;;;12.47;11.97;;;14.30;99.90;;;;;;5122642;27;20461;-67
2023/06/16 01:39:14;;;;;;;12.90;12.40;;;14.30;99.90;;;;;;5105081;27;20538;-67
2023/06/16 01:41:42;;;;;;;13.17;12.67;;;14.20;99.90;;;;;;5111247;27;20807;-67
2023/06/16 01:44:10;;;;;;;12.60;12.10;;;14.20;99.90;;;;;;5109615;28;20458;-67
2023/06/16 01:46:37;;;;;;;12.57;12.07;;;14.20;99.90;;;;;;5103582;28;20792;-66
2023/06/16 01:49:06;;;;;;;12.20;11.70;;;14.10;99.90;;;;;;5120268;28;20821;-67
2023/06/16 01:51:33;;;;;;;12.30;11.80;;;14.00;99.90;;;;;;5104947;28;20469;-68
2023/06/16 01:54:00;;;;;;;12.43;11.93;;;13.90;99.90;;;;;;5095592;28;20454;-67
2023/06/16 01:56:30;;;;;;;12.50;12.00;;;13.70;99.90;;;;;;5099178;28;20958;-66
2023/06/16 01:58:57;;;;;;;11.40;11.00;;;13.60;99.90;;;;;;5120717;28;20946;-68
2023/06/16 02:01:27;;;;;;;11.70;11.30;;;13.50;99.90;;;;;;5109148;28;20483;-67
2023/06/16 02:04:02;;;;;;;11.63;11.23;;;13.50;99.90;;;;;;5114921;28;20466;-67
2023/06/16 02:06:37;;;;;;;11.33;10.93;;;13.40;99.90;;;;;;5103979;28;20881;-67
2023/06/16 02:09:07;;;;;;;11.73;11.33;;;13.30;99.90;;;;;;5111965;28;20491;-67
2023/06/16 02:11:36;;;;;;;11.53;11.13;;;13.30;99.90;;;;;;5112709;28;20500;-67
2023/06/16 02:14:03;;;;;;;11.50;11.10;;;13.20;99.90;;;;;;5102828;28;20458;-68
2023/06/16 02:16:31;;;;;;;12.13;11.63;;;13.10;99.90;;;;;;5094375;28;20480;-69
2023/06/16 02:18:59;;;;;;;11.70;11.30;;;13.10;99.90;;;;;;5120493;28;20460;-67
2023/06/16 02:21:26;;;;;;;12.23;11.73;;;13.00;99.90;;;;;;5098907;28;20755;-66
2023/06/16 02:23:53;;;;;;;11.77;11.37;;;13.00;99.90;;;;;;5092575;28;20819;-68
2023/06/16 02:26:21;;;;;;;12.03;11.57;;;13.00;99.90;;;;;;5099104;28;20458;-67
2023/06/16 02:28:50;;;;;;;11.33;10.93;;;12.90;99.90;;;;;;5099060;28;20454;-68
2023/06/16 02:31:18;;;;;;;11.77;11.37;;;12.80;99.90;;;;;;5105142;28;20488;-68
2023/06/16 02:33:45;;;;;;;12.07;11.57;;;12.70;99.90;;;;;;5102783;28;20816;-67
2023/06/16 02:36:13;;;;;;;11.53;11.13;;;12.70;99.90;;;;;;5120059;28;20516;-67
2023/06/16 02:38:40;;;;;;;11.43;11.03;;;12.60;99.90;;;;;;5099623;28;20457;-69
2023/06/16 02:41:07;;;;;;;11.53;11.13;;;12.60;99.90;;;;;;5104444;27;20537;-67
2023/06/16 02:43:34;;;;;;;11.63;11.23;;;12.50;99.90;;;;;;5109326;27;20487;-68
2023/06/16 02:46:03;;;;;;;12.10;11.60;;;12.50;99.90;;;;;;5112861;27;20457;-68
2023/06/16 02:48:30;;;;;;;11.87;11.47;;;12.50;99.90;;;;;;5123623;27;20465;-67
2023/06/16 02:50:58;;;;;;;11.03;10.63;;;12.50;99.90;;;;;;5117967;27;20464;-67
2023/06/16 02:53:25;;;;;;;11.23;10.83;;;12.50;99.90;;;;;;5102837;27;20542;-67
2023/06/16 02:55:53;;;;;;;11.27;10.87;;;12.40;99.90;;;;;;5105785;27;20563;-68
2023/06/16 02:58:23;;;;;;;11.10;10.70;;;12.30;99.90;;;;;;5122119;27;20830;-68
2023/06/16 03:00:50;;;;;;;10.60;10.20;;;12.30;99.90;;;;;;5114273;27;20850;-68
2023/06/16 03:03:19;;;;;;;10.93;10.53;;;12.30;99.90;;;;;;5113695;27;20493;-68
2023/06/16 03:05:46;;;;;;;10.60;10.20;;;12.20;99.90;;;;;;5104625;27;20467;-69
2023/06/16 03:08:13;;;;;;;10.53;10.13;;;12.20;99.90;;;;;;5114641;27;20453;-67
2023/06/16 03:10:42;;;;;;;10.97;10.57;;;12.20;99.90;;;;;;5101012;27;20472;-67
2023/06/16 03:13:09;;;;;;;11.00;10.60;;;12.10;99.90;;;;;;5119126;27;20470;-68
2023/06/16 03:15:36;;;;;;;11.10;10.70;;;12.10;99.90;;;;;;5119958;27;21014;-67
2023/06/16 03:18:03;;;;;;;10.93;10.53;;;12.10;99.90;;;;;;5108354;27;20466;-67
2023/06/16 03:20:31;;;;;;;10.93;10.53;;;12.10;99.90;;;;;;5100199;27;20980;-66
2023/06/16 03:22:58;;;;;;;10.73;10.33;;;12.10;99.90;;;;;;5114424;27;20994;-68
2023/06/16 03:25:28;;;;;;;11.13;10.73;;;12.10;99.90;;;;;;5108308;27;20471;-67
2023/06/16 03:27:56;;;;;;;11.17;10.77;;;12.10;99.90;;;;;;5119258;27;20800;-68
2023/06/16 03:30:22;;;;;;;10.90;10.50;;;12.10;99.90;;;;;;5104187;27;20893;-67
2023/06/16 03:32:50;;;;;;;10.73;10.33;;;12.10;99.90;;;;;;5101877;27;20465;-67
2023/06/16 03:35:17;;;;;;;11.47;11.07;;;12.10;99.90;;;;;;5116280;27;20464;-66
2023/06/16 03:37:46;;;;;;;10.80;10.40;;;12.10;99.90;;;;;;5090046;27;20472;-67
2023/06/16 03:40:14;;;;;;;11.10;10.70;;;12.10;99.90;;;;;;5110720;27;20866;-65
2023/06/16 03:42:41;;;;;;;10.60;10.20;;;12.00;99.90;;;;;;5117722;27;20542;-68
2023/06/16 03:45:09;;;;;;;10.73;10.33;;;12.00;99.90;;;;;;5101305;27;20515;-67
2023/06/16 03:47:35;;;;;;;10.43;10.03;;;12.00;99.90;;;;;;5110337;27;21081;-66
2023/06/16 03:50:03;;;;;;;10.70;10.30;;;12.00;99.90;;;;;;5108148;27;20470;-67
2023/06/16 03:52:30;;;;;;;11.00;10.60;;;12.10;99.90;;;;;;5103553;27;20551;-67
2023/06/16 03:55:00;;;;;;;10.77;10.37;;;12.10;99.90;;;;;;5097476;27;20472;-68
2023/06/16 03:57:26;;;;;;;10.87;10.47;;;12.20;99.90;;;;;;5099952;27;20454;-67
2023/06/16 03:59:53;;;;;;;10.90;10.50;;;12.30;99.90;;;;;;5118301;27;20457;-67
2023/06/16 04:02:20;;;;;;;11.20;10.80;;;12.30;99.90;;;;;;5095049;28;20493;-68
2023/06/16 04:04:47;;;;;;;11.57;11.17;;;12.30;99.90;;;;;;5093820;27;20492;-67
2023/06/16 04:07:14;;;;;;;11.40;11.00;;;12.30;99.90;;;;;;5103383;27;20461;-66
2023/06/16 04:09:41;;;;;;;11.10;10.70;;;12.40;99.90;;;;;;5105001;27;20468;-66
2023/06/16 04:12:12;;;;;;;11.80;11.40;;;12.40;99.90;;;;;;5101637;27;20869;-67
2023/06/16 04:14:39;;;;;;;11.67;11.27;;;12.50;99.90;;;;;;5123753;27;20469;-67
2023/06/16 04:17:06;;;;;;;11.37;10.97;;;12.50;99.90;;;;;;5105268;28;20906;-68
2023/06/16 04:19:33;;;;;;;11.53;11.13;;;12.50;99.90;;;;;;5102644;27;20462;-67
2023/06/16 04:22:00;;;;;;;12.30;11.80;;;12.50;99.90;;;;;;5106705;27;20477;-67
2023/06/16 04:24:27;;;;;;;11.77;11.37;;;12.50;99.90;;;;;;5115432;27;20456;-67
2023/06/16 04:26:58;;;;;;;11.70;11.30;;;12.60;99.90;;;;;;5117039;27;20459;-68
2023/06/16 04:29:27;;;;;;;12.00;11.50;;;12.70;99.90;;;;;;5106891;27;20464;-68
2023/06/16 04:31:59;;;;;;;12.07;11.57;;;12.80;99.90;;;;;;5121739;27;20456;-67
2023/06/16 04:34:26;;;;;;;11.57;11.17;;;12.90;99.90;;;;;;5105080;27;20823;-69
2023/06/16 04:36:53;;;;;;;11.57;11.17;;;13.00;99.90;;;;;;5098539;27;20870;-67
2023/06/16 04:39:20;;;;;;;11.70;11.30;;;13.10;99.90;;;;;;5109430;27;20994;-67
2023/06/16 04:41:47;;;;;;;11.57;11.17;;;13.20;99.90;;;;;;5121221;27;20836;-66
2023/06/16 04:44:14;;;;;;;11.70;11.30;;;13.30;99.90;;;;;;5104205;27;20464;-68
2023/06/16 04:46:43;;;;;;;11.83;11.37;;;13.40;99.90;;;;;;5094227;27;20466;-67
2023/06/16 04:49:11;;;;;;;11.50;11.10;;;13.60;99.90;;;;;;5115719;27;20464;-67
2023/06/16 04:51:38;;;;;;;12.00;11.50;;;13.80;99.90;;;;;;5102238;28;20475;-67
2023/06/16 04:54:05;;;;;;;11.50;11.10;;;14.00;99.90;;;;;;5098009;27;20464;-67
2023/06/16 04:56:31;;;;;;;12.20;11.70;;;14.20;99.90;;;;;;5106303;27;20475;-68
2023/06/16 04:58:59;;;;;;;12.00;11.50;;;14.20;99.90;;;;;;5103729;27;20714;-68
2023/06/16 05:01:26;;;;;;;11.53;11.13;;;14.40;99.90;;;;;;5109369;27;20461;-67
2023/06/16 05:03:54;;;;;;;12.40;11.90;;;14.60;99.90;;;;;;5115703;27;20457;-68
2023/06/16 05:06:21;;;;;;;12.40;11.90;;;14.70;99.90;;;;;;5092912;27;20540;-68
2023/06/16 05:08:49;;;;;;;13.17;12.67;;;14.80;99.90;;;;;;5097218;27;20448;-68
2023/06/16 05:11:17;;;;;;;12.57;12.07;;;15.00;99.90;;;;;;5103068;27;20812;-67
2023/06/16 05:13:44;;;;;;;12.73;12.23;;;15.20;99.90;;;;;;5099423;27;20511;-69
2023/06/16 05:16:12;;;;;;;12.80;12.30;;;15.30;99.90;;;;;;5094660;27;20482;-68
2023/06/16 05:18:38;;;;;;;12.13;11.63;;;15.40;99.90;;;;;;5101010;27;20454;-67
2023/06/16 05:21:07;;;;;;;12.33;11.83;;;15.60;99.90;;;;;;5099979;27;20547;-67
2023/06/16 05:23:36;;;;;;;12.47;11.97;;;15.70;99.90;;;;;;5102808;28;20488;-67
2023/06/16 05:26:03;;;;;;;13.20;12.70;;;15.90;99.90;;;;;;5100075;28;20873;-66
2023/06/16 05:28:29;;;;;;;12.97;12.47;;;16.10;99.90;;;;;;5104210;27;20455;-67
2023/06/16 05:30:56;;;;;;;13.13;12.63;;;16.20;99.90;;;;;;5097231;28;20861;-67
2023/06/16 05:33:23;;;;;;;12.60;12.10;;;16.30;99.90;;;;;;5096887;27;20470;-69
2023/06/16 05:35:49;;;;;;;12.77;12.27;;;16.60;99.90;;;;;;5104241;27;20993;-68
2023/06/16 05:38:18;;;;;;;14.00;13.40;;;16.70;99.90;;;;;;5106148;27;21059;-68
2023/06/16 05:40:46;;;;;;;12.97;12.47;;;16.90;99.90;;;;;;5106148;27;20994;-67
2023/06/16 05:43:12;;;;;;;12.90;12.40;;;17.10;99.90;;;;;;5103941;27;20499;-67
2023/06/16 05:45:39;;;;;;;14.97;14.37;;;17.10;99.90;;;;;;5088201;28;20813;-68
2023/06/16 05:48:07;;;;;;;13.97;13.37;;;17.40;99.90;;;;;;5097723;28;20464;-67
2023/06/16 05:50:34;;;;;;;15.50;14.50;;;17.70;99.90;;;;;;5091913;28;20743;-68
2023/06/16 05:53:01;;;;;;;14.50;13.90;;;17.90;99.90;;;;;;5089760;28;20863;-68
2023/06/16 05:55:30;;;;;;;14.43;13.83;;;18.20;99.90;;;;;;5100020;28;20809;-68
2023/06/16 05:57:56;;;;;;;15.37;14.67;;;18.40;99.90;;;;;;5103924;28;20464;-67
2023/06/16 06:00:23;;;;;;;36.67;18.00;;;18.50;99.90;;;;;;5098974;28;20465;-69
2023/06/16 06:02:50;;;;;;;14.60;14.00;;;18.60;99.90;;;;;;5097448;28;20481;-68
2023/06/16 06:05:17;;;;;;;14.70;14.10;;;18.80;99.90;;;;;;5099873;28;20468;-67
2023/06/16 06:07:44;;;;;;;16.10;14.53;;;19.00;99.90;;;;;;5096263;28;20531;-68
2023/06/16 06:10:12;;;;;;;14.70;14.10;;;19.10;99.90;;;;;;5093687;28;20466;-68
2023/06/16 06:12:40;;;;;;;14.90;14.30;;;19.40;99.90;;;;;;5099739;28;20454;-68
2023/06/16 06:15:09;;;;;;;15.47;14.77;;;19.50;99.90;;;;;;5106110;27;20947;-67
2023/06/16 06:17:35;;;;;;;14.97;14.37;;;19.70;99.90;;;;;;5097303;27;20931;-67
2023/06/16 06:20:03;;;;;;;15.57;14.87;;;19.80;99.90;;;;;;5120118;27;20448;-68
2023/06/16 06:22:32;;;;;;;15.17;14.50;;;19.90;99.90;;;;;;5099689;27;20477;-66
2023/06/16 06:24:59;;;;;;;16.10;15.20;;;20.00;99.90;;;;;;5104175;27;20901;-65
2023/06/16 06:27:26;;;;;;;15.90;15.20;;;20.10;99.90;;;;;;5103927;27;20457;-66
2023/06/16 06:29:54;;;;;;;15.50;14.80;;;20.30;99.90;;;;;;5103254;27;20449;-67
2023/06/16 06:32:21;;;;;;;15.03;14.43;;;20.40;99.90;;;;;;5095446;27;20456;-68
2023/06/16 06:34:48;;;;;;;15.77;15.07;;;20.60;99.90;;;;;;5096505;27;21108;-66
2023/06/16 06:37:18;;;;;;;16.07;15.37;;;20.60;99.90;;;;;;5101523;27;20463;-67
2023/06/16 06:39:46;;;;;;;15.97;15.27;;;20.60;99.90;;;;;;5103815;27;20536;-68
2023/06/16 06:42:15;;;;;;;16.07;15.30;;;20.60;99.90;;;;;;5104903;27;20507;-68
2023/06/16 06:44:42;;;;;;;15.47;14.80;;;20.80;99.90;;;;;;5104837;27;20556;-67
2023/06/16 06:47:10;;;;;;;15.20;14.50;;;20.90;99.90;;;;;;5108484;27;20555;-68
2023/06/16 06:49:37;;;;;;;15.60;14.90;;;21.10;99.90;;;;;;5104830;28;20458;-68
2023/06/16 06:52:06;;;;;;;15.40;14.70;;;21.40;99.90;;;;;;5101855;27;20500;-68
2023/06/16 06:54:33;;;;;;;15.97;15.27;;;21.60;99.90;;;;;;5106087;27;20454;-67
2023/06/16 06:57:00;;;;;;;16.23;15.43;;;21.60;99.90;;;;;;5124209;27;20850;-67
2023/06/16 06:59:27;;;;;;;15.00;14.40;;;21.70;99.90;;;;;;5095858;27;20461;-68
2023/06/16 07:01:54;;;;;;;14.70;14.10;;;21.70;99.90;;;;;;5106659;27;20466;-66
2023/06/16 07:04:22;;;;;;;15.53;14.73;;;21.60;99.90;;;;;;5099761;27;20522;-67
2023/06/16 07:06:49;;;;;;;16.37;15.63;;;21.80;99.90;;;;;;5102376;27;20453;-68
2023/06/16 07:09:16;;;;;;;15.53;14.83;;;21.90;99.90;;;;;;5106732;27;20908;-67
2023/06/16 07:11:43;;;;;;;15.10;14.50;;;21.90;99.90;;;;;;5104628;27;20467;-67
2023/06/16 07:14:10;;;;;;;15.00;14.40;;;22.00;99.90;;;;;;5104645;27;20458;-67
2023/06/16 07:16:37;;;;;;;15.70;14.93;;;22.00;99.90;;;;;;5098146;27;20487;-68
2023/06/16 07:19:05;;;;;;;16.23;15.53;;;22.10;99.90;;;;;;5101647;28;20463;-68
2023/06/16 07:21:34;;;;;;;14.70;14.10;;;22.20;99.90;;;;;;5116089;27;20487;-67
2023/06/16 07:24:01;;;;;;;16.20;15.50;;;22.40;99.90;;;;;;5098147;27;21014;-68
2023/06/16 07:26:29;;;;;;;15.50;14.80;;;22.50;99.90;;;;;;5102604;27;20460;-68
2023/06/16 07:28:56;;;;;;;16.00;15.30;;;22.50;99.90;;;;;;5097627;27;20461;-67
2023/06/16 07:31:23;;;;;;;17.00;16.10;;;22.50;99.90;;;;;;5094353;28;20861;-68
2023/06/16 07:33:50;;;;;;;16.53;15.80;;;22.50;99.90;;;;;;5094517;27;20761;-68
2023/06/16 07:36:16;;;;;;;16.17;15.47;;;22.80;99.90;;;;;;5089285;28;20898;-68
2023/06/16 07:38:45;;;;;;;19.00;18.00;;;22.90;99.90;;;;;;5099994;27;20471;-69
2023/06/16 07:41:12;;;;;;;15.63;14.93;;;22.90;99.90;;;;;;5109543;27;20463;-68
2023/06/16 07:43:38;;;;;;;15.30;14.70;;;22.80;99.90;;;;;;5101242;27;20487;-67
2023/06/16 07:46:05;;;;;;;15.60;14.90;;;23.00;99.40;;;;;;5092682;28;20466;-68
2023/06/16 07:48:32;;;;;;;15.73;15.03;;;23.00;99.80;;;;;;5103333;27;20461;-67
2023/06/16 07:50:59;;;;;;;15.73;15.03;;;23.20;99.90;;;;;;5098738;27;20484;-67
2023/06/16 07:53:25;;;;;;;16.30;15.60;;;23.10;99.80;;;;;;5095062;27;20839;-67
2023/06/16 07:55:55;;;;;;;15.47;14.80;;;23.40;99.90;;;;;;5092274;27;20462;-68
2023/06/16 07:58:22;;;;;;;15.53;14.83;;;23.50;99.90;;;;;;5108729;27;20462;-67
2023/06/16 08:00:51;;;;;;;15.63;14.93;;;23.60;99.90;;;;;;5100581;27;20450;-67
2023/06/16 08:03:18;;;;;;;15.70;15.00;;;23.90;99.90;;;;;;5088400;28;20486;-67
2023/06/16 08:05:45;;;;;;;16.90;16.10;;;24.20;99.50;;;;;;5101430;27;20850;-67
2023/06/16 08:08:12;;;;;;;17.43;16.63;;;25.00;98.40;;;;;;5097298;27;20885;-68
2023/06/16 08:10:38;;;;;;;16.43;15.73;;;25.90;95.50;;;;;;5091674;27;20759;-68
2023/06/16 08:13:06;;;;;;;16.77;16.07;;;26.20;95.40;;;;;;5093150;28;20466;-68
2023/06/16 08:15:34;;;;;;;17.23;16.27;;;26.90;95.00;;;;;;5092650;27;20500;-67
2023/06/16 08:18:00;;;;;;;17.57;16.60;;;27.60;92.30;;;;;;5089530;27;20465;-68
2023/06/16 08:20:29;;;;;;;16.23;15.53;;;27.60;89.80;;;;;;5105346;27;20464;-67
2023/06/16 08:22:55;;;;;;;16.67;15.97;;;28.10;87.00;;;;;;5095957;28;20543;-68
2023/06/16 08:25:23;;;;;;;15.57;14.97;;;28.40;84.50;;;;;;5093629;28;21156;-67
2023/06/16 08:27:50;;;;;;;15.97;15.27;;;28.40;79.70;;;;;;5097434;27;20457;-67
2023/06/16 08:30:19;;;;;;;15.90;15.20;;;28.40;80.00;;;;;;5090822;27;20451;-67
2023/06/16 08:32:46;;;;;;;16.43;15.73;;;29.00;75.50;;;;;;5092580;27;20988;-67
2023/06/16 08:35:13;;;;;;;16.27;15.57;;;29.70;73.90;;;;;;5091929;28;20554;-68
2023/06/16 08:37:40;;;;;;;16.40;15.70;;;29.90;68.60;;;;;;5098821;27;20454;-68
2023/06/16 08:40:10;;;;;;;16.80;16.03;;;30.00;66.90;;;;;;5099353;27;20485;-68
2023/06/16 08:42:38;;;;;;;16.40;15.70;;;29.90;63.00;;;;;;5091674;27;20872;-68
2023/06/16 08:45:07;;;;;;;16.00;15.30;;;29.80;58.90;;;;;;5090318;28;20559;-67
2023/06/16 08:47:38;;;;;;;16.03;15.33;;;30.60;56.90;;;;;;5097269;27;20460;-68
2023/06/16 08:50:05;;;;;;;16.00;15.30;;;30.80;57.90;;;;;;5088613;28;21117;-68
2023/06/16 08:52:37;;;;;;;16.97;15.93;;;31.10;56.20;;;;;;5101481;27;20506;-68
2023/06/16 08:55:07;;;;;;;16.13;15.43;;;31.30;55.30;;;;;;5096844;28;20485;-68
2023/06/16 08:57:37;;;;;;;16.27;15.57;;;32.00;50.90;;;;;;5098500;27;20946;-67
2023/06/16 09:00:08;;;;;;;15.63;15.03;;;31.80;46.40;;;;;;5101529;27;21268;-67
2023/06/16 09:02:36;;;;;;;16.07;15.37;;;31.80;48.60;;;;;;5093002;27;20862;-67
2023/06/16 09:05:04;;;;;;;15.47;14.87;;;32.00;50.40;;;;;;5093916;27;20454;-68
2023/06/16 09:07:31;;;;;;;15.43;14.83;;;30.90;48.50;;;;;;5086005;27;20463;-69
2023/06/16 09:09:59;;;;;;;15.30;14.70;;;31.30;49.40;;;;;;5096910;27;20483;-68
2023/06/16 09:12:26;;;;;;;15.67;15.07;;;32.00;48.70;;;;;;5097986;28;20480;-68
2023/06/16 09:14:52;;;;;;;16.07;15.37;;;31.80;47.60;;;;;;5098022;27;20466;-68
2023/06/16 09:17:24;;;;;;;15.53;14.90;;;32.20;46.60;;;;;;5093220;28;20492;-68
2023/06/16 09:19:55;;;;;;;15.50;14.90;;;32.00;44.20;;;;;;5092801;28;20492;-69
2023/06/16 09:22:26;;;;;;;16.83;15.93;;;32.00;43.50;;;;;;5090119;27;20759;-67
2023/06/16 09:24:56;;;;;;;15.87;14.80;;;32.20;43.90;;;;;;5084312;27;20486;-68
2023/06/16 09:27:25;;;;;;;14.90;14.30;;;32.70;43.40;;;;;;5104893;27;20483;-68
2023/06/16 09:29:58;;;;;;;14.80;14.20;;;32.70;43.90;;;;;;5097793;27;20769;-68
2023/06/16 09:32:25;;;;;;;16.60;15.90;;;32.40;44.20;;;;;;5098491;27;20967;-67
2023/06/16 09:34:55;;;;;;;15.40;14.80;;;31.90;42.70;;;;;;5094935;28;20501;-67
2023/06/16 09:37:22;;;;;;;15.13;14.53;;;31.80;43.30;;;;;;5089408;28;20490;-68
2023/06/16 09:39:49;;;;;;;15.07;14.47;;;32.50;42.30;;;;;;5091034;27;20489;-69
2023/06/16 09:42:18;;;;;;;15.90;15.30;;;32.90;41.00;;;;;;5089535;28;20837;-69
2023/06/16 09:44:46;;;;;;;16.33;15.63;;;33.40;41.80;;;;;;5093007;28;20500;-69
2023/06/16 09:47:14;;;;;;;15.77;15.17;;;33.40;41.40;;;;;;5093944;28;20462;-69
2023/06/16 09:49:41;;;;;;;19.17;17.73;;;33.00;40.30;;;;;;5090782;28;20461;-68
2023/06/16 09:52:10;;;;;;;14.90;14.30;;;32.00;41.50;;;;;;5094756;28;20458;-68
2023/06/16 09:54:37;;;;;;;15.10;14.50;;;31.80;43.40;;;;;;5092804;28;20491;-68
2023/06/16 09:57:06;;;;;;;15.43;14.77;;;32.30;42.30;;;;;;5096016;28;20943;-68
2023/06/16 09:59:33;;;;;;;15.53;14.93;;;33.20;41.60;;;;;;5100494;28;20454;-69
2023/06/16 10:02:01;;;;;;;15.20;14.60;;;32.60;41.00;;;;;;5099101;28;20464;-67
2023/06/16 10:04:34;;;;;;;15.40;14.80;;;33.00;41.10;;;;;;5105527;28;20820;-68
2023/06/16 10:07:05;;;;;;;15.50;14.80;;;32.80;41.10;;;;;;5099338;28;20463;-69
2023/06/16 10:09:41;;;;;;;15.37;14.77;;;33.10;41.10;;;;;;5093780;28;20474;-68
2023/06/16 10:12:11;;;;;;;15.43;14.83;;;33.00;39.90;;;;;;5095644;28;20735;-68
2023/06/16 10:14:41;;;;;;;15.80;15.10;;;32.50;39.50;;;;;;5102652;28;20472;-67
2023/06/16 10:17:10;;;;;;;15.07;14.47;;;32.40;39.50;;;;;;5091748;28;20487;-68
2023/06/16 10:19:38;;;;;;;15.37;14.77;;;32.90;39.90;;;;;;5100879;28;20454;-68
2023/06/16 10:22:07;;;;;;;15.10;14.50;;;33.90;39.00;;;;;;5109169;28;20819;-68
2023/06/16 10:24:36;;;;;;;15.50;14.90;;;33.90;40.50;;;;;;5089372;28;20489;-69
2023/06/16 10:27:03;;;;;;;15.80;15.13;;;33.90;38.80;;;;;;5094570;28;20846;-68
2023/06/16 10:29:31;;;;;;;15.10;14.50;;;33.90;38.40;;;;;;5088362;28;20533;-68
2023/06/16 10:32:06;;;;;;;15.03;14.43;;;34.30;38.80;;;;;;5102032;28;20519;-68
2023/06/16 10:34:36;;;;;;;14.80;14.20;;;34.30;38.90;;;;;;5094524;28;20462;-68
2023/06/16 10:37:03;;;;;;;15.60;14.83;;;33.90;38.80;;;;;;5092166;28;20453;-68
2023/06/16 10:39:34;;;;;;;15.67;15.07;;;34.50;38.20;;;;;;5093543;28;20485;-69
2023/06/16 10:42:02;;;;;;;16.53;15.67;;;34.30;37.60;;;;;;5103826;28;20559;-67
2023/06/16 10:44:31;;;;;;;15.07;14.47;;;34.00;37.80;;;;;;5098600;28;20493;-68
2023/06/16 10:47:25;;;;;;;15.13;14.53;;;33.50;38.40;;;;;;5105948;28;20456;-68
2023/06/16 10:49:55;;;;;;;15.43;14.80;;;34.00;38.90;;;;;;5099949;28;20460;-69
2023/06/16 10:52:50;;;;;;;16.03;15.33;;;34.80;38.30;;;;;;5095220;28;20470;-67
2023/06/16 10:55:35;;;;;;;15.90;15.10;;;34.60;38.60;;;;;;5090129;28;20579;-68
2023/06/16 10:58:30;;;;;;;16.60;15.90;;;34.30;37.80;;;;;;5091457;28;20454;-68
2023/06/16 11:01:03;;;;;;;16.33;15.63;;;34.90;37.70;;;;;;5097054;28;20464;-69
2023/06/16 11:03:35;;;;;;;15.77;15.13;;;34.60;37.70;;;;;;5093877;27;20864;-68
2023/06/16 11:06:03;;;;;;;16.80;16.10;;;34.70;37.60;;;;;;5093731;27;20556;-68
2023/06/16 11:08:30;;;;;;;16.20;15.50;;;34.90;37.60;;;;;;5090709;28;20937;-69
2023/06/16 11:11:06;;;;;;;19.53;18.33;;;35.30;38.10;;;;;;5099651;27;20464;-69
2023/06/16 11:13:38;;;;;;;15.73;15.10;;;35.80;38.10;;;;;;5094617;27;20509;-67
2023/06/16 11:16:05;;;;;;;16.67;15.80;;;36.50;37.00;;;;;;5104817;27;20517;-68
2023/06/16 11:18:35;;;;;;;15.80;15.10;;;37.00;36.10;;;;;;5091655;27;20457;-67
2023/06/16 11:21:03;;;;;;;15.70;15.10;;;35.70;37.20;;;;;;5098218;27;20490;-68
2023/06/16 11:23:31;;;;;;;17.40;16.60;;;37.00;37.50;;;;;;5101314;27;20568;-69
2023/06/16 11:26:04;;;;;;;15.63;15.03;;;37.50;36.00;;;;;;5088227;27;20453;-69
2023/06/16 11:28:33;;;;;;;15.90;15.30;;;37.50;36.50;;;;;;5098952;27;20462;-70
2023/06/16 11:31:02;;;;;;;16.60;15.90;;;37.30;36.60;;;;;;5091112;27;20463;-68
2023/06/16 11:33:29;;;;;;;15.90;15.20;;;36.80;36.70;;;;;;5099534;27;20485;-69
2023/06/16 11:35:57;;;;;;;15.70;15.10;;;36.80;36.20;;;;;;5097708;27;20561;-70
2023/06/16 11:38:25;;;;;;;16.17;15.47;;;37.00;35.40;;;;;;5112838;27;20857;-68
2023/06/16 11:40:54;;;;;;;16.33;15.63;;;36.50;36.70;;;;;;5094804;27;20476;-69
2023/06/16 11:43:23;;;;;;;16.60;15.90;;;36.10;36.60;;;;;;5096940;27;20923;-68
2023/06/16 11:45:52;;;;;;;15.57;14.93;;;36.60;36.70;;;;;;5103029;27;20484;-69
2023/06/16 11:48:21;;;;;;;15.83;15.13;;;36.70;37.20;;;;;;5092843;27;20462;-68
2023/06/16 11:50:48;;;;;;;15.13;14.53;;;36.10;35.50;;;;;;5102811;27;20457;-69
2023/06/16 11:53:17;;;;;;;16.67;15.87;;;35.70;36.50;;;;;;5102981;27;20467;-68
2023/06/16 11:55:50;;;;;;;15.27;14.67;;;35.40;37.60;;;;;;5106553;27;20460;-67
2023/06/16 11:58:17;;;;;;;15.40;14.80;;;35.20;36.80;;;;;;5091091;27;20458;-68
2023/06/16 12:00:45;;;;;;;14.60;14.00;;;35.20;36.30;;;;;;5105619;27;20460;-69
2023/06/16 12:03:12;;;;;;;14.70;14.10;;;35.60;36.90;;;;;;5090849;27;20531;-68
2023/06/16 12:05:41;;;;;;;14.90;14.30;;;36.00;36.00;;;;;;5101525;27;20498;-69
2023/06/16 12:08:09;;;;;;;14.90;14.30;;;36.60;35.80;;;;;;5103542;27;20469;-67
2023/06/16 12:10:36;;;;;;;14.83;14.23;;;36.90;36.60;;;;;;5096459;27;20453;-68
2023/06/16 12:13:03;;;;;;;14.23;13.73;;;37.60;36.10;;;;;;5095873;27;20473;-69
2023/06/16 12:15:30;;;;;;;14.33;13.73;;;38.10;35.30;;;;;;5090838;27;21022;-69
2023/06/16 12:17:57;;;;;;;16.27;15.47;;;37.90;35.40;;;;;;5094474;27;20466;-69
2023/06/16 12:20:24;;;;;;;14.43;13.87;;;37.20;34.90;;;;;;5088854;28;20535;-70
2023/06/16 12:22:57;;;;;;;14.77;14.07;;;37.30;34.90;;;;;;5097908;27;20460;-70
2023/06/16 12:25:26;;;;;;;15.33;14.63;;;37.80;34.60;;;;;;5086076;28;20485;-68
2023/06/16 12:27:58;;;;;;;15.10;14.50;;;38.00;34.50;;;;;;5090860;27;21095;-69
2023/06/16 12:30:33;;;;;;;14.70;14.10;;;38.70;34.40;;;;;;5097903;27;20760;-69
2023/06/16 12:33:08;;;;;;;14.87;14.27;;;38.50;33.60;;;;;;5099154;27;20698;-68
2023/06/16 12:35:35;;;;;;;16.50;15.70;;;36.80;35.20;;;;;;5093666;27;20511;-68